Time;durP1;ratioP1;P1;durP2;ratioP2;P2;SDS_P1;SDS_P2;PMS_P1;PMS_P2;Temp;Humidity;BMP_temperature;BMP_pressure;BME280_temperature;BME280_humidity;BME280_pressure;Samples;Min_cycle;Max_cycle;Signal;HPM_P1;HPM_P2
2023/04/18 00:01:20;;;;;;;37.47;20.20;;;;;;;16.20;52.70;102825.22;5048352;28;20030;-69
2023/04/18 00:03:46;;;;;;;35.87;19.70;;;;;;;16.15;52.77;102815.56;5048426;28;20036;-70
2023/04/18 00:06:12;;;;;;;43.47;19.90;;;;;;;16.90;50.07;102817.09;5046004;28;20036;-69
2023/04/18 00:08:38;;;;;;;41.83;22.47;;;;;;;16.09;52.24;102819.97;5042430;28;20079;-70
2023/04/18 00:11:06;;;;;;;40.00;21.50;;;;;;;15.95;53.14;102824.38;5044912;28;20025;-70
2023/04/18 00:13:32;;;;;;;37.57;21.10;;;;;;;15.60;55.52;102819.94;5029874;28;20025;-69
2023/04/18 00:15:57;;;;;;;39.17;20.70;;;;;;;15.77;53.93;102820.84;5045936;28;20504;-69
2023/04/18 00:18:25;;;;;;;37.77;21.80;;;;;;;15.71;54.39;102820.81;5030323;28;20033;-70
2023/04/18 00:20:51;;;;;;;36.30;19.90;;;;;;;15.83;54.46;102833.19;5041995;28;20036;-69
2023/04/18 00:23:17;;;;;;;34.27;20.57;;;;;;;15.77;54.27;102827.84;5026950;28;20393;-69
2023/04/18 00:25:42;;;;;;;38.20;21.23;;;;;;;15.95;53.00;102829.66;5029564;28;20029;-69
2023/04/18 00:28:08;;;;;;;43.47;20.77;;;;;;;15.77;52.82;102820.84;5029204;28;20049;-69
2023/04/18 00:30:34;;;;;;;37.20;19.77;;;;;;;15.95;53.24;102824.38;5037466;28;20025;-69
2023/04/18 00:32:59;;;;;;;33.93;19.57;;;;;;;16.30;51.84;102826.06;5052149;28;20017;-68
2023/04/18 00:35:25;;;;;;;36.57;19.33;;;;;;;15.71;52.30;102820.81;5047369;28;20396;-68
2023/04/18 00:37:50;;;;;;;37.80;18.77;;;;;;;15.71;52.04;102826.09;5068841;28;20032;-69
2023/04/18 00:40:16;;;;;;;38.37;18.30;;;;;;;15.36;52.74;102813.78;5067193;28;20095;-69
2023/04/18 00:42:41;;;;;;;31.13;17.63;;;;;;;15.47;52.06;102820.81;5051580;28;20087;-69
2023/04/18 00:45:07;;;;;;;34.70;17.60;;;;;;;15.96;50.68;102810.31;5038374;28;20033;-68
2023/04/18 00:47:32;;;;;;;29.03;16.50;;;;;;;16.02;50.30;102812.03;5033514;28;20105;-68
2023/04/18 00:49:58;;;;;;;36.73;18.33;;;;;;;15.90;50.67;102818.22;5038020;28;20025;-68
2023/04/18 00:52:26;;;;;;;29.40;17.33;;;;;;;15.83;49.35;102811.22;5067232;28;20549;-68
2023/04/18 00:54:51;;;;;;;26.23;15.43;;;;;;;15.68;50.18;102806.78;5073393;28;20055;-68
2023/04/18 00:57:16;;;;;;;30.70;17.47;;;;;;;15.73;50.50;102805.91;5070613;28;20106;-69
2023/04/18 00:59:42;;;;;;;27.30;17.17;;;;;;;15.59;49.53;102805.00;5057289;28;20033;-70
2023/04/18 01:02:07;;;;;;;30.40;15.63;;;;;;;16.22;48.25;102807.59;5050590;28;20036;-68
2023/04/18 01:04:33;;;;;;;28.93;16.53;;;;;;;15.56;49.67;102807.66;5049012;28;20059;-69
2023/04/18 01:06:59;;;;;;;29.83;16.17;;;;;;;15.22;49.82;102804.97;5063575;28;20529;-68
2023/04/18 01:09:25;;;;;;;24.80;14.97;;;;;;;15.44;49.44;102806.78;5061827;28;20013;-69
2023/04/18 01:11:50;;;;;;;26.33;15.87;;;;;;;15.44;49.17;102809.41;5049973;28;20025;-69
2023/04/18 01:14:18;;;;;;;29.17;14.67;;;;;;;15.20;48.86;102806.72;5065775;28;20520;-69
2023/04/18 01:16:43;;;;;;;26.23;14.47;;;;;;;16.04;46.76;102808.53;5050745;28;20040;-70
2023/04/18 01:19:09;;;;;;;25.90;15.00;;;;;;;16.24;46.38;102805.00;5049987;28;20488;-69
2023/04/18 01:21:35;;;;;;;27.90;15.63;;;;;;;16.35;46.41;102802.31;5064892;28;20044;-70
2023/04/18 01:24:12;;;;;;;28.33;14.80;;;;;;;16.32;46.38;102802.31;5052862;28;20108;-69
2023/04/18 01:26:37;;;;;;;25.03;15.40;;;;;;;15.88;46.88;102801.53;5052082;28;20063;-69
2023/04/18 01:29:04;;;;;;;23.13;14.60;;;;;;;15.86;46.78;102804.16;5052487;28;20146;-69
2023/04/18 01:31:32;;;;;;;26.97;14.90;;;;;;;15.56;47.04;102795.34;5058701;28;20071;-69
2023/04/18 01:33:57;;;;;;;21.80;13.50;;;;;;;15.06;47.99;102799.69;5059059;28;20140;-69
2023/04/18 01:36:22;;;;;;;24.13;13.47;;;;;;;15.28;46.90;102799.72;5050408;28;20132;-69
2023/04/18 01:38:48;;;;;;;27.00;13.47;;;;;;;15.26;46.45;102807.63;5050347;28;20031;-70
2023/04/18 01:41:13;;;;;;;22.17;12.30;;;;;;;15.56;46.06;102799.75;5050835;28;20500;-69
2023/04/18 01:43:39;;;;;;;26.30;13.03;;;;;;;15.39;45.55;102802.38;5066633;28;20036;-70
2023/04/18 01:46:04;;;;;;;22.27;12.60;;;;;;;15.85;44.98;102797.13;5030408;28;20071;-69
2023/04/18 01:48:29;;;;;;;22.77;12.47;;;;;;;15.46;45.41;102795.38;5030971;28;20538;-69
2023/04/18 01:50:55;;;;;;;19.30;12.73;;;;;;;15.51;45.44;102799.75;5049434;28;20063;-70
2023/04/18 01:53:22;;;;;;;20.30;13.73;;;;;;;14.63;47.71;102804.81;5070982;28;20166;-69
2023/04/18 01:55:49;;;;;;;21.73;12.33;;;;;;;15.26;45.71;102798.81;5072042;28;20035;-69
2023/04/18 01:58:15;;;;;;;18.67;11.97;;;;;;;15.16;46.00;102799.69;5068748;28;20028;-69
2023/04/18 02:00:40;;;;;;;21.27;12.07;;;;;;;13.90;46.95;102811.34;5054201;28;20404;-69
2023/04/18 02:03:05;;;;;;;20.43;11.53;;;;;;;14.45;46.44;102796.78;5051768;28;20150;-69
2023/04/18 02:05:31;;;;;;;19.60;11.37;;;;;;;14.50;45.35;102801.19;5031894;28;20037;-69
2023/04/18 02:07:56;;;;;;;18.00;10.43;;;;;;;14.59;44.01;102798.59;5029468;28;20075;-70
2023/04/18 02:10:22;;;;;;;16.93;10.13;;;;;;;14.66;44.06;102802.19;5030155;28;20046;-69
2023/04/18 02:12:47;;;;;;;18.13;10.27;;;;;;;15.01;42.54;102798.78;5031780;28;20036;-69
2023/04/18 02:15:12;;;;;;;20.67;9.70;;;;;;;14.31;43.58;102796.72;5041084;28;20123;-68
2023/04/18 02:17:38;;;;;;;18.87;10.00;;;;;;;14.60;42.92;102794.22;5070022;28;20115;-69
2023/04/18 02:20:04;;;;;;;16.93;9.60;;;;;;;14.72;42.61;102789.03;5036573;28;20126;-69
2023/04/18 02:22:29;;;;;;;15.83;8.83;;;;;;;14.75;42.05;102783.81;5030864;28;20064;-69
2023/04/18 02:24:54;;;;;;;15.07;9.40;;;;;;;14.08;43.43;102787.81;5051598;28;20159;-69
2023/04/18 02:27:20;;;;;;;17.70;9.00;;;;;;;14.22;43.02;102792.28;5049643;28;20028;-69
2023/04/18 02:29:45;;;;;;;16.13;9.57;;;;;;;13.65;43.44;102790.13;5037472;28;20032;-69
2023/04/18 02:32:11;;;;;;;14.03;8.57;;;;;;;13.39;44.31;102787.25;5046056;28;20466;-70
2023/04/18 02:34:36;;;;;;;17.87;9.03;;;;;;;13.59;43.51;102782.19;5048473;28;20033;-69
2023/04/18 02:37:02;;;;;;;17.43;8.60;;;;;;;13.52;43.57;102789.13;5049074;28;20033;-69
2023/04/18 02:39:27;;;;;;;13.70;9.07;;;;;;;13.96;42.69;102779.84;5049303;28;20536;-69
2023/04/18 02:41:53;;;;;;;13.13;8.33;;;;;;;13.73;42.72;102782.31;5049524;28;20108;-69
2023/04/18 02:44:18;;;;;;;16.50;8.90;;;;;;;13.44;43.57;102785.56;5049874;28;20032;-69
2023/04/18 02:46:43;;;;;;;16.10;9.07;;;;;;;14.61;41.57;102774.06;5049642;28;20040;-69
2023/04/18 02:49:09;;;;;;;13.10;7.73;;;;;;;14.06;42.54;102779.03;5047048;28;20114;-70
2023/04/18 02:51:34;;;;;;;17.87;8.60;;;;;;;13.83;42.48;102773.59;5038964;28;20049;-68
2023/04/18 02:53:59;;;;;;;13.97;8.07;;;;;;;14.35;41.87;102778.31;5030173;28;20400;-68
2023/04/18 02:56:25;;;;;;;17.07;8.83;;;;;;;14.55;41.30;102785.44;5048504;28;20110;-68
2023/04/18 02:58:50;;;;;;;16.13;8.37;;;;;;;13.71;42.86;102792.81;5050717;28;20031;-69
2023/04/18 03:01:16;;;;;;;13.77;9.03;;;;;;;14.23;42.51;102783.50;5048882;28;20512;-69
2023/04/18 03:03:42;;;;;;;15.80;8.50;;;;;;;13.63;43.63;102791.88;5060161;28;20036;-69
2023/04/18 03:06:07;;;;;;;13.63;9.10;;;;;;;14.02;42.58;102784.25;5068755;28;20040;-69
2023/04/18 03:08:33;;;;;;;16.80;8.47;;;;;;;14.47;41.92;102781.91;5055038;28;20025;-68
2023/04/18 03:10:58;;;;;;;14.07;8.73;;;;;;;14.19;41.89;102782.63;5032981;28;20025;-69
2023/04/18 03:13:24;;;;;;;17.90;9.60;;;;;;;14.04;42.34;102782.50;5049445;28;20095;-69
2023/04/18 03:15:49;;;;;;;15.87;8.13;;;;;;;13.49;42.45;102793.47;5049165;28;20029;-69
2023/04/18 03:18:15;;;;;;;14.13;8.97;;;;;;;13.66;42.11;102791.88;5065262;28;20480;-69
2023/04/18 03:20:40;;;;;;;15.93;8.67;;;;;;;13.35;43.37;102785.44;5054215;28;20401;-69
2023/04/18 03:23:06;;;;;;;15.73;9.13;;;;;;;13.84;42.94;102792.91;5034685;28;20068;-69
2023/04/18 03:25:31;;;;;;;13.93;8.83;;;;;;;14.45;41.43;102786.25;5044962;28;20032;-68
2023/04/18 03:27:56;;;;;;;15.83;8.70;;;;;;;14.39;42.00;102795.88;5030381;28;20451;-69
2023/04/18 03:30:22;;;;;;;13.97;8.70;;;;;;;14.20;41.97;102788.75;5030153;28;20065;-69
2023/04/18 03:32:51;;;;;;;17.57;8.87;;;;;;;13.19;44.00;102792.31;5054111;28;20025;-68
2023/04/18 03:35:17;;;;;;;17.63;8.90;;;;;;;13.87;42.67;102790.28;5044530;28;20036;-68
2023/04/18 03:37:42;;;;;;;17.47;9.30;;;;;;;14.44;41.37;102798.53;5028431;28;20041;-68
2023/04/18 03:40:08;;;;;;;14.93;9.57;;;;;;;13.66;43.16;102797.13;5044135;28;20116;-69
2023/04/18 03:42:34;;;;;;;15.27;9.67;;;;;;;14.12;41.60;102788.69;5041302;28;20029;-69
2023/04/18 03:44:59;;;;;;;14.40;9.13;;;;;;;13.77;42.27;102786.72;5048773;28;20021;-68
2023/04/18 03:47:25;;;;;;;16.27;9.87;;;;;;;14.33;40.64;102794.94;5045410;28;20068;-68
2023/04/18 03:49:50;;;;;;;17.57;9.67;;;;;;;13.78;41.61;102791.09;5049085;28;20029;-68
2023/04/18 03:52:15;;;;;;;14.17;9.57;;;;;;;13.79;42.42;102792.84;5056960;28;20458;-68
2023/04/18 03:54:41;;;;;;;16.97;9.20;;;;;;;13.46;41.80;102793.47;5067015;28;20074;-69
2023/04/18 03:57:06;;;;;;;18.63;9.93;;;;;;;13.55;41.11;102793.53;5044741;28;20032;-69
2023/04/18 03:59:32;;;;;;;13.17;9.00;;;;;;;13.26;42.84;102791.50;5029212;28;20037;-68
2023/04/18 04:01:57;;;;;;;19.07;9.90;;;;;;;13.11;42.41;102796.59;5045471;28;20024;-69
2023/04/18 04:04:22;;;;;;;15.43;8.90;;;;;;;13.33;42.74;102800.31;5061713;28;20440;-69
2023/04/18 04:06:48;;;;;;;14.97;9.57;;;;;;;13.91;41.25;102798.19;5067974;28;20025;-69
2023/04/18 04:09:13;;;;;;;17.70;10.23;;;;;;;14.32;40.84;102799.34;5057986;28;20015;-69
2023/04/18 04:11:39;;;;;;;17.83;10.03;;;;;;;13.39;42.59;102803.91;5048645;28;20489;-69
2023/04/18 04:14:04;;;;;;;16.70;9.60;;;;;;;12.60;44.60;102810.00;5044803;28;20484;-69
2023/04/18 04:16:30;;;;;;;18.87;10.27;;;;;;;13.28;42.76;102797.63;5029459;28;20037;-69
2023/04/18 04:18:55;;;;;;;15.53;9.20;;;;;;;13.62;42.24;102805.84;5062363;28;20031;-69
2023/04/18 04:21:21;;;;;;;18.23;9.83;;;;;;;13.45;42.63;102796.94;5045465;28;20029;-69
2023/04/18 04:23:46;;;;;;;16.07;10.47;;;;;;;13.29;41.84;102799.41;5057345;28;20029;-69
2023/04/18 04:26:13;;;;;;;16.77;9.67;;;;;;;13.96;41.68;102800.88;5048594;28;20036;-69
2023/04/18 04:28:39;;;;;;;23.60;10.27;;;;;;;13.20;42.17;102796.66;5046631;28;20029;-69
2023/04/18 04:31:05;;;;;;;18.87;10.53;;;;;;;13.33;42.47;102806.44;5027589;28;20386;-69
2023/04/18 04:33:32;;;;;;;16.00;9.50;;;;;;;13.30;42.26;102802.88;5033804;28;20029;-69
2023/04/18 04:35:59;;;;;;;19.10;10.20;;;;;;;14.39;40.89;102798.50;5029009;28;20022;-69
2023/04/18 04:38:24;;;;;;;18.17;10.13;;;;;;;13.45;41.89;102807.44;5045952;28;20067;-69
2023/04/18 04:40:50;;;;;;;24.30;10.80;;;;;;;13.54;42.04;102807.53;5044317;28;20052;-68
2023/04/18 04:43:19;;;;;;;16.13;9.97;;;;;;;13.83;41.65;102805.16;5052416;28;20059;-70
2023/04/18 04:45:48;;;;;;;17.13;9.80;;;;;;;14.01;41.35;102808.78;5045550;28;20451;-69
2023/04/18 04:48:14;;;;;;;19.00;10.67;;;;;;;13.30;42.83;102809.03;5042664;28;20372;-70
2023/04/18 04:50:40;;;;;;;18.67;10.53;;;;;;;12.91;42.95;102810.34;5048518;28;20366;-68
2023/04/18 04:53:06;;;;;;;19.57;10.33;;;;;;;12.76;43.60;102818.03;5053803;28;20056;-67
2023/04/18 04:55:32;;;;;;;20.33;10.37;;;;;;;13.22;42.84;102808.94;5066698;28;20587;-68
2023/04/18 04:57:58;;;;;;;17.03;10.37;;;;;;;12.87;43.50;102813.81;5056287;28;20027;-69
2023/04/18 05:00:24;;;;;;;19.80;10.93;;;;;;;12.76;44.01;102815.41;5068785;28;20032;-70
2023/04/18 05:02:54;;;;;;;18.00;10.53;;;;;;;13.31;42.45;102816.06;5049446;28;20155;-70
2023/04/18 05:05:19;;;;;;;18.57;10.33;;;;;;;13.19;43.08;102821.19;5043368;28;20028;-70
2023/04/18 05:07:44;;;;;;;18.77;10.83;;;;;;;13.30;42.82;102816.91;5045174;28;20033;-69
2023/04/18 05:10:10;;;;;;;17.23;10.27;;;;;;;12.65;44.06;102824.06;5044805;28;20013;-70
2023/04/18 05:12:35;;;;;;;15.13;10.30;;;;;;;13.24;42.87;102820.38;5036558;28;20552;-69
2023/04/18 05:15:01;;;;;;;18.57;10.93;;;;;;;13.36;43.50;102822.25;5049044;28;20024;-69
2023/04/18 05:17:27;;;;;;;17.63;10.30;;;;;;;12.82;43.94;102823.38;5039191;28;20389;-68
2023/04/18 05:19:52;;;;;;;16.53;10.50;;;;;;;12.53;45.40;102823.91;5056435;28;20039;-68
2023/04/18 05:22:17;;;;;;;20.73;10.90;;;;;;;13.64;43.56;102819.00;5048921;28;20481;-69
2023/04/18 05:24:43;;;;;;;19.43;10.83;;;;;;;13.39;43.53;102824.94;5046580;28;20060;-68
2023/04/18 05:27:08;;;;;;;15.93;10.43;;;;;;;13.65;43.85;102828.66;5050872;28;20040;-70
2023/04/18 05:29:34;;;;;;;16.53;9.73;;;;;;;13.07;44.34;102828.03;5048244;28;20029;-69
2023/04/18 05:32:00;;;;;;;16.83;10.80;;;;;;;13.57;43.67;102824.22;5030900;28;20022;-69
2023/04/18 05:34:25;;;;;;;21.37;11.43;;;;;;;13.08;44.58;102823.69;5051086;28;20059;-69
2023/04/18 05:36:51;;;;;;;19.20;11.40;;;;;;;13.23;44.30;102834.34;5038985;28;20103;-69
2023/04/18 05:39:16;;;;;;;18.13;10.13;;;;;;;13.10;44.45;102829.81;5029803;28;20088;-68
2023/04/18 05:41:42;;;;;;;16.53;10.67;;;;;;;13.43;44.31;102830.22;5032562;28;20033;-69
2023/04/18 05:44:08;;;;;;;18.50;11.80;;;;;;;13.44;44.73;102837.22;5038947;28;20082;-69
2023/04/18 05:46:33;;;;;;;17.27;10.47;;;;;;;13.34;44.65;102837.09;5064883;28;20020;-70
2023/04/18 05:48:59;;;;;;;20.57;11.60;;;;;;;13.92;43.72;102838.53;5048302;28;20021;-69
2023/04/18 05:51:25;;;;;;;15.90;10.73;;;;;;;13.28;45.16;102842.28;5047817;28;20047;-70
2023/04/18 05:53:51;;;;;;;18.03;10.43;;;;;;;13.37;44.62;102845.03;5044102;28;20037;-69
2023/04/18 05:56:16;;;;;;;20.33;11.27;;;;;;;14.93;42.41;102846.16;5047229;28;20465;-67
2023/04/18 05:58:43;;;;;;;18.20;9.87;;;;;;;14.04;44.33;102851.78;5052042;28;20029;-67
2023/04/18 06:01:09;;;;;;;21.30;12.03;;;;;;;14.02;44.15;102848.22;5046732;28;20032;-68
2023/04/18 06:03:34;;;;;;;19.37;11.80;;;;;;;13.55;44.99;102851.34;5045051;28;20029;-68
2023/04/18 06:06:00;;;;;;;22.20;10.40;;;;;;;13.72;44.44;102855.03;5053846;28;20370;-68
2023/04/18 06:08:25;;;;;;;21.73;11.23;;;;;;;13.69;45.12;102849.72;5053816;28;20495;-68
2023/04/18 06:10:50;;;;;;;18.23;11.23;;;;;;;13.79;45.00;102857.69;5034814;28;20028;-69
2023/04/18 06:13:16;;;;;;;20.83;10.57;;;;;;;13.97;45.07;102849.97;5039641;28;20559;-68
2023/04/18 06:15:41;;;;;;;18.70;10.67;;;;;;;13.64;44.98;102861.94;5048092;28;20029;-69
2023/04/18 06:18:06;;;;;;;19.43;11.20;;;;;;;14.15;44.41;102858.84;5043630;28;20021;-69
2023/04/18 06:20:32;;;;;;;17.00;10.83;;;;;;;14.41;43.85;102853.75;5043399;28;20560;-68
2023/04/18 06:22:57;;;;;;;15.23;10.30;;;;;;;13.65;45.24;102854.94;5041374;28;20551;-68
2023/04/18 06:25:23;;;;;;;19.47;11.37;;;;;;;14.17;44.51;102862.38;5036276;28;20337;-69
2023/04/18 06:27:49;;;;;;;19.57;10.30;;;;;;;13.50;45.93;102868.81;5044437;28;20035;-68
2023/04/18 06:30:14;;;;;;;18.70;11.10;;;;;;;13.62;46.02;102868.94;5049195;28;20023;-69
2023/04/18 06:32:40;;;;;;;18.70;10.80;;;;;;;13.60;45.07;102860.16;5049713;28;20126;-68
2023/04/18 06:35:05;;;;;;;19.43;11.17;;;;;;;13.32;47.25;102865.06;5050253;28;20025;-68
2023/04/18 06:37:31;;;;;;;19.93;11.37;;;;;;;13.95;46.06;102859.56;5049879;28;20079;-68
2023/04/18 06:39:57;;;;;;;16.80;10.73;;;;;;;13.82;45.42;102865.59;5049776;28;20025;-69
2023/04/18 06:42:22;;;;;;;17.33;10.37;;;;;;;13.75;45.82;102859.41;5048648;28;20039;-69
2023/04/18 06:44:48;;;;;;;29.03;11.17;;;;;;;14.69;43.88;102857.47;5033288;28;20025;-69
2023/04/18 06:47:13;;;;;;;15.70;10.33;;;;;;;15.50;43.11;102849.84;5050613;28;20074;-69
2023/04/18 06:49:39;;;;;;;19.33;10.93;;;;;;;15.35;43.13;102843.63;5048810;28;20021;-69
2023/04/18 06:52:04;;;;;;;15.20;10.23;;;;;;;14.49;44.58;102851.19;5050230;28;20041;-68
2023/04/18 06:54:30;;;;;;;15.43;9.87;;;;;;;14.42;44.78;102853.78;5047656;28;20146;-70
2023/04/18 06:56:56;;;;;;;18.23;10.50;;;;;;;14.54;44.99;102857.34;5049893;28;20808;-69
2023/04/18 06:59:22;;;;;;;15.27;10.20;;;;;;;15.24;43.62;102850.66;5048708;28;20389;-69
2023/04/18 07:01:47;;;;;;;17.17;10.57;;;;;;;15.55;42.82;102853.31;5049704;28;20098;-69
2023/04/18 07:04:13;;;;;;;21.13;10.70;;;;;;;15.04;43.31;102859.38;5049666;28;20476;-69
2023/04/18 07:06:38;;;;;;;19.10;10.33;;;;;;;13.88;46.08;102860.41;5050675;28;20025;-69
2023/04/18 07:09:04;;;;;;;19.83;10.63;;;;;;;15.17;43.29;102852.38;5048947;28;20025;-69
2023/04/18 07:11:29;;;;;;;16.43;9.80;;;;;;;15.02;43.35;102866.38;5048374;28;20029;-69
2023/04/18 07:13:55;;;;;;;15.17;9.87;;;;;;;14.70;45.05;102853.06;5050551;28;20031;-69
2023/04/18 07:16:20;;;;;;;16.13;9.13;;;;;;;13.90;46.32;102867.44;5049202;28;20094;-69
2023/04/18 07:18:46;;;;;;;14.87;9.80;;;;;;;14.57;44.75;102860.00;5050580;28;20028;-69
2023/04/18 07:21:11;;;;;;;18.50;10.33;;;;;;;15.17;43.64;102860.28;5048360;28;20025;-70
2023/04/18 07:23:36;;;;;;;15.07;9.43;;;;;;;15.52;43.00;102867.38;5048404;28;20044;-68
2023/04/18 07:26:04;;;;;;;16.33;9.90;;;;;;;15.48;42.92;102856.84;5048863;28;20123;-68
2023/04/18 07:28:31;;;;;;;19.40;10.10;;;;;;;15.72;42.96;102854.22;5048956;28;20455;-69
2023/04/18 07:30:57;;;;;;;15.50;9.03;;;;;;;14.17;45.42;102862.38;5048058;28;20428;-69
2023/04/18 07:33:23;;;;;;;14.87;9.27;;;;;;;14.01;45.19;102858.75;5048350;28;20413;-69
2023/04/18 07:35:50;;;;;;;16.17;10.10;;;;;;;14.99;44.54;102857.56;5048780;28;20075;-69
2023/04/18 07:38:15;;;;;;;15.07;9.20;;;;;;;13.92;45.70;102862.19;5048756;28;20025;-69
2023/04/18 07:40:41;;;;;;;14.63;8.50;;;;;;;14.61;44.96;102869.66;5048615;28;20025;-69
2023/04/18 07:43:06;;;;;;;16.73;9.77;;;;;;;15.17;44.19;102864.69;5048335;28;20021;-69
2023/04/18 07:45:34;;;;;;;14.17;9.50;;;;;;;15.63;42.96;102859.50;5048069;28;20492;-68
2023/04/18 07:48:00;;;;;;;15.93;9.03;;;;;;;15.94;42.53;102863.06;5048628;28;20028;-68
2023/04/18 07:50:26;;;;;;;12.40;8.53;;;;;;;14.87;43.85;102871.59;5047881;28;20021;-69
2023/04/18 07:52:51;;;;;;;14.23;9.10;;;;;;;15.09;44.17;102873.41;5047890;28;20051;-69
2023/04/18 07:55:17;;;;;;;14.00;9.13;;;;;;;14.74;45.30;102868.00;5047917;28;20499;-69
2023/04/18 07:57:42;;;;;;;13.47;8.37;;;;;;;14.78;44.83;102861.00;5048592;28;20060;-69
2023/04/18 08:00:09;;;;;;;14.93;9.17;;;;;;;15.06;44.60;102867.28;5046918;28;20032;-69
2023/04/18 08:02:34;;;;;;;15.17;8.97;;;;;;;14.69;45.06;102867.13;5048578;28;20104;-69
2023/04/18 08:05:00;;;;;;;13.33;8.67;;;;;;;14.51;46.00;102862.59;5049771;28;20108;-68
2023/04/18 08:07:25;;;;;;;15.23;8.73;;;;;;;15.47;43.27;102862.97;5047213;28;20021;-69
2023/04/18 08:09:50;;;;;;;12.50;8.27;;;;;;;15.16;43.91;102849.75;5049589;28;20108;-68
2023/04/18 08:12:16;;;;;;;13.73;8.30;;;;;;;14.05;46.61;102858.78;5049104;28;20021;-69
2023/04/18 08:14:41;;;;;;;15.30;8.47;;;;;;;14.68;45.49;102855.69;5048941;28;20024;-68
2023/04/18 08:17:06;;;;;;;14.47;9.20;;;;;;;16.15;42.16;102858.63;5047674;28;20033;-69
2023/04/18 08:19:32;;;;;;;14.27;8.67;;;;;;;15.52;43.71;102853.34;5048122;28;20060;-68
2023/04/18 08:22:11;;;;;;;12.77;8.20;;;;;;;14.92;44.92;102864.59;5047678;28;20496;-69
2023/04/18 08:24:37;;;;;;;17.73;8.67;;;;;;;15.93;42.54;102863.06;5049407;28;20024;-69
2023/04/18 08:27:06;;;;;;;13.70;8.77;;;;;;;17.22;40.84;102858.31;5047510;28;20037;-69
2023/04/18 08:29:32;;;;;;;14.53;7.83;;;;;;;16.97;39.98;102866.38;5048083;28;20044;-69
2023/04/18 08:31:57;;;;;;;13.03;8.13;;;;;;;17.39;39.75;102850.28;5049433;28;20111;-69
2023/04/18 08:34:23;;;;;;;13.33;8.30;;;;;;;18.59;38.09;102857.16;5048844;28;20417;-69
2023/04/18 08:36:50;;;;;;;13.90;8.10;;;;;;;19.45;36.71;102849.88;5049278;28;20082;-69
2023/04/18 08:39:15;;;;;;;13.00;7.63;;;;;;;19.09;36.90;102852.13;5048951;28;20441;-69
2023/04/18 08:41:42;;;;;;;14.30;8.35;;;;;;;17.84;38.05;102860.53;5048627;28;20032;-69
2023/04/18 08:44:07;;;;;;;11.93;8.30;;;;;;;18.61;37.64;102854.50;5048886;28;20106;-69
2023/04/18 08:46:34;;;;;;;13.77;7.77;;;;;;;18.28;38.05;102856.63;5048049;28;20017;-69
2023/04/18 08:49:02;;;;;;;12.73;7.93;;;;;;;17.38;40.30;102852.06;5047374;28;20021;-69
2023/04/18 08:51:38;;;;;;;12.13;8.17;;;;;;;17.66;39.16;102857.13;5051099;28;20052;-69
2023/04/18 08:54:05;;;;;;;11.43;7.23;;;;;;;16.49;40.83;102855.94;5053123;28;20031;-69
2023/04/18 08:56:31;;;;;;;14.33;7.50;;;;;;;16.82;41.06;102855.84;5051127;28;20070;-69
2023/04/18 08:58:59;;;;;;;9.20;6.10;;;;;;;17.19;39.62;102861.84;5053186;28;20099;-69
2023/04/18 09:02:05;;;;;;;14.23;7.23;;;;;;;18.50;37.88;102861.69;5051232;28;20116;-69
2023/04/18 09:04:42;;;;;;;14.50;7.37;;;;;;;18.37;38.33;102851.22;5010954;28;20096;-69
2023/04/18 09:07:10;;;;;;;11.33;7.43;;;;;;;17.60;38.67;102851.91;4994040;28;20057;-68
2023/04/18 09:09:56;;;;;;;11.37;6.70;;;;;;;17.59;39.51;102851.00;5024550;28;20170;-69
2023/04/18 09:12:28;;;;;;;15.00;6.80;;;;;;;17.76;38.87;102842.97;5050955;28;20470;-69
2023/04/18 09:14:56;;;;;;;11.75;6.95;;;;;;;17.60;38.50;102841.31;5052844;28;20029;-69
2023/04/18 09:17:42;;;;;;;13.77;6.43;;;;;;;17.04;39.54;102852.25;5050361;28;20112;-69
2023/04/18 09:20:09;;;;;;;12.73;6.90;;;;;;;17.00;39.63;102845.22;5052149;28;20037;-70
2023/04/18 09:22:50;;;;;;;10.57;6.73;;;;;;;18.73;37.00;102843.75;5052661;28;20393;-69
2023/04/18 09:25:33;;;;;;;10.73;6.63;;;;;;;19.18;36.11;102839.66;5051879;28;20039;-69
2023/04/18 09:28:00;;;;;;;8.98;6.10;;;;;;;20.00;34.38;102841.91;5051305;28;20036;-69
2023/04/18 09:30:39;;;;;;;10.45;6.30;;;;;;;18.73;35.83;102843.75;5051616;28;20021;-69
2023/04/18 09:33:08;;;;;;;11.63;7.10;;;;;;;18.75;36.16;102841.06;5052074;28;20036;-70
2023/04/18 09:35:37;;;;;;;10.35;6.43;;;;;;;17.50;38.25;102850.19;5051163;28;20040;-69
2023/04/18 09:38:05;;;;;;;11.95;6.45;;;;;;;17.87;37.33;102845.47;5051834;28;20039;-69
2023/04/18 09:40:31;;;;;;;9.95;7.07;;;;;;;17.97;37.35;102835.75;5050994;28;20508;-68
2023/04/18 09:42:57;;;;;;;10.38;6.68;;;;;;;18.61;36.94;102833.31;5050891;28;20063;-69
2023/04/18 09:45:24;;;;;;;11.18;7.00;;;;;;;19.88;35.77;102836.81;5049868;28;20821;-69
2023/04/18 09:47:50;;;;;;;9.10;6.50;;;;;;;20.78;33.57;102836.00;5050859;28;20389;-69
2023/04/18 09:50:17;;;;;;;7.55;5.68;;;;;;;19.21;34.78;102837.84;5050560;28;20025;-69
2023/04/18 09:52:43;;;;;;;9.02;6.13;;;;;;;19.47;35.07;102832.13;5051124;28;20052;-69
2023/04/18 09:55:11;;;;;;;9.57;6.22;;;;;;;20.06;34.77;102831.19;5050289;28;20036;-69
2023/04/18 09:57:41;;;;;;;9.90;6.15;;;;;;;18.80;36.30;102845.41;5052052;28;20532;-69
2023/04/18 10:00:22;;;;;;;9.43;6.15;;;;;;;19.55;35.36;102828.47;5049277;28;20458;-70
2023/04/18 10:02:50;;;;;;;8.30;6.13;;;;;;;18.09;37.00;102830.34;5050760;28;20053;-72
2023/04/18 10:05:17;;;;;;;10.57;6.28;;;;;;;19.37;35.61;102830.53;5049477;28;20039;-70
2023/04/18 10:07:47;;;;;;;8.07;6.13;;;;;;;18.81;36.57;102830.41;5050451;28;20562;-70
2023/04/18 10:10:13;;;;;;;7.28;5.32;;;;;;;18.97;36.93;102831.09;5050176;28;20503;-69
2023/04/18 10:12:40;;;;;;;8.32;6.65;;;;;;;19.06;35.94;102825.69;5051440;28;20028;-70
2023/04/18 10:15:06;;;;;;;7.72;5.60;;;;;;;18.60;36.71;102836.84;5051080;28;20025;-69
2023/04/18 10:17:54;;;;;;;9.23;5.88;;;;;;;18.49;36.35;102823.72;5051656;28;20082;-70
2023/04/18 10:20:23;;;;;;;9.40;5.68;;;;;;;17.65;38.15;102818.34;5049002;28;20086;-69
2023/04/18 10:22:49;;;;;;;14.15;7.28;;;;;;;20.79;33.87;102817.34;5050323;28;20495;-70
2023/04/18 10:25:33;;;;;;;8.43;5.30;;;;;;;18.92;35.40;102832.97;5049375;28;20093;-70
2023/04/18 10:28:02;;;;;;;8.88;5.60;;;;;;;18.52;35.63;102829.00;5049424;28;20071;-70
2023/04/18 10:30:40;;;;;;;11.05;5.22;;;;;;;20.09;34.65;102817.84;5050899;28;20167;-69
2023/04/18 10:33:29;;;;;;;7.38;5.13;;;;;;;18.92;35.74;102817.94;5049629;28;20040;-70
2023/04/18 10:36:10;;;;;;;5.88;4.55;;;;;;;20.38;34.11;102816.41;5050036;28;20060;-69
2023/04/18 10:38:44;;;;;;;6.40;4.47;;;;;;;19.68;34.70;102808.81;5051424;28;20516;-69
2023/04/18 10:41:16;;;;;;;6.28;4.35;;;;;;;20.61;34.38;102812.41;5048619;28;20400;-70
2023/04/18 10:44:20;;;;;;;6.05;4.30;;;;;;;20.30;33.46;102805.94;5051267;28;20075;-70
2023/04/18 10:46:51;;;;;;;6.93;4.68;;;;;;;20.93;32.99;102803.75;5051336;28;20045;-70
2023/04/18 10:49:22;;;;;;;10.13;4.38;;;;;;;20.33;33.65;102813.84;5048619;28;20473;-69
2023/04/18 10:51:53;;;;;;;5.93;4.35;;;;;;;20.24;33.43;102797.22;5050800;28;20057;-70
2023/04/18 10:54:37;;;;;;;7.55;5.20;;;;;;;19.88;34.09;102805.84;5048637;28;20036;-69
2023/04/18 10:57:04;;;;;;;9.82;4.20;;;;;;;18.96;35.58;102810.81;5049924;28;20090;-69
2023/04/18 10:59:32;;;;;;;9.65;4.93;;;;;;;19.04;36.13;102801.00;5049521;28;20480;-70
2023/04/18 11:02:00;;;;;;;5.95;4.30;;;;;;;20.20;33.77;102803.50;5050263;28;20093;-69
2023/04/18 11:04:25;;;;;;;6.88;3.63;;;;;;;18.41;36.38;102805.28;5050391;28;20036;-69
2023/04/18 11:06:55;;;;;;;5.18;4.03;;;;;;;18.44;36.54;102802.59;5050773;28;20017;-69
2023/04/18 11:09:21;;;;;;;6.95;3.75;;;;;;;18.29;36.96;102797.50;5048090;28;20028;-70
2023/04/18 11:12:02;;;;;;;4.72;3.55;;;;;;;18.65;36.35;102792.63;5049484;28;20400;-70
2023/04/18 11:14:50;;;;;;;5.53;3.75;;;;;;;19.18;35.28;102797.25;5048810;28;20559;-69